sensor_id;sensor_type;location;lat;lon;timestamp;pressure;altitude;pressure_sealevel;temperature;humidity
70781;BME280;59514;48.810;2.134;2023-04-01T00:01:06;98960.16;;;9.59;98.98
70781;BME280;59514;48.810;2.134;2023-04-01T00:03:33;99021.88;;;9.64;97.08
70781;BME280;59514;48.810;2.134;2023-04-01T00:05:59;98974.19;;;9.66;97.01
70781;BME280;59514;48.810;2.134;2023-04-01T00:08:25;98993.72;;;9.67;97.35
70781;BME280;59514;48.810;2.134;2023-04-01T00:10:52;98971.50;;;9.66;97.28
70781;BME280;59514;48.810;2.134;2023-04-01T00:13:18;98985.13;;;9.65;97.30
70781;BME280;59514;48.810;2.134;2023-04-01T00:15:44;98986.47;;;9.62;98.75
70781;BME280;59514;48.810;2.134;2023-04-01T00:18:09;98980.00;;;9.58;99.11
70781;BME280;59514;48.810;2.134;2023-04-01T00:20:35;98974.66;;;9.58;100.00
70781;BME280;59514;48.810;2.134;2023-04-01T00:23:00;98997.69;;;9.59;99.29
70781;BME280;59514;48.810;2.134;2023-04-01T00:25:26;98981.59;;;9.59;99.06
70781;BME280;59514;48.810;2.134;2023-04-01T00:27:51;99000.09;;;9.61;98.53
70781;BME280;59514;48.810;2.134;2023-04-01T00:30:17;98984.03;;;9.61;98.52
70781;BME280;59514;48.810;2.134;2023-04-01T00:32:42;98974.94;;;9.62;98.59
70781;BME280;59514;48.810;2.134;2023-04-01T00:35:08;98985.66;;;9.62;99.30
70781;BME280;59514;48.810;2.134;2023-04-01T00:37:35;98969.88;;;9.65;98.21
70781;BME280;59514;48.810;2.134;2023-04-01T00:40:02;98981.91;;;9.63;98.05
70781;BME280;59514;48.810;2.134;2023-04-01T00:42:28;98988.91;;;9.64;97.46
70781;BME280;59514;48.810;2.134;2023-04-01T00:44:54;98976.53;;;9.63;98.57
70781;BME280;59514;48.810;2.134;2023-04-01T00:47:21;99010.81;;;9.61;99.20
70781;BME280;59514;48.810;2.134;2023-04-01T00:49:50;98995.81;;;9.60;100.00
70781;BME280;59514;48.810;2.134;2023-04-01T00:52:19;98977.63;;;9.62;99.92
70781;BME280;59514;48.810;2.134;2023-04-01T00:54:50;98971.72;;;9.60;98.60
70781;BME280;59514;48.810;2.134;2023-04-01T00:57:35;98985.91;;;9.60;99.31
70781;BME280;59514;48.810;2.134;2023-04-01T01:00:05;98985.59;;;9.56;100.00
70781;BME280;59514;48.810;2.134;2023-04-01T01:02:32;98987.22;;;9.57;99.38
70781;BME280;59514;48.810;2.134;2023-04-01T01:04:58;98988.28;;;9.56;98.84
70781;BME280;59514;48.810;2.134;2023-04-01T01:07:42;98984.25;;;9.54;100.00
70781;BME280;59514;48.810;2.134;2023-04-01T01:10:30;98977.56;;;9.56;99.22
70781;BME280;59514;48.810;2.134;2023-04-01T01:13:11;98986.66;;;9.55;98.84
70781;BME280;59514;48.810;2.134;2023-04-01T01:15:53;98974.38;;;9.60;99.38
70781;BME280;59514;48.810;2.134;2023-04-01T01:29:15;98999.50;;;9.53;100.00
70781;BME280;59514;48.810;2.134;2023-04-01T01:34:35;98998.84;;;9.41;100.00
70781;BME280;59514;48.810;2.134;2023-04-01T01:37:11;98982.75;;;9.41;100.00
70781;BME280;59514;48.810;2.134;2023-04-01T01:39:39;98986.44;;;9.35;100.00
70781;BME280;59514;48.810;2.134;2023-04-01T01:42:09;98998.78;;;9.36;100.00
70781;BME280;59514;48.810;2.134;2023-04-01T01:44:38;98986.41;;;9.30;100.00
70781;BME280;59514;48.810;2.134;2023-04-01T01:47:04;98999.47;;;9.27;100.00
70781;BME280;59514;48.810;2.134;2023-04-01T01:49:32;99008.88;;;9.29;100.00
70781;BME280;59514;48.810;2.134;2023-04-01T01:51:58;99011.50;;;9.24;100.00
70781;BME280;59514;48.810;2.134;2023-04-01T01:54:23;99004.47;;;9.18;100.00
70781;BME280;59514;48.810;2.134;2023-04-01T01:56:51;99024.00;;;9.19;100.00
70781;BME280;59514;48.810;2.134;2023-04-01T01:59:20;99007.44;;;9.22;100.00
70781;BME280;59514;48.810;2.134;2023-04-01T02:01:50;99000.56;;;9.31;100.00
70781;BME280;59514;48.810;2.134;2023-04-01T02:04:17;99006.75;;;9.31;100.00
70781;BME280;59514;48.810;2.134;2023-04-01T02:06:50;99008.44;;;9.37;100.00
70781;BME280;59514;48.810;2.134;2023-04-01T02:09:19;99022.69;;;9.43;100.00
70781;BME280;59514;48.810;2.134;2023-04-01T02:11:52;99001.25;;;9.43;100.00
70781;BME280;59514;48.810;2.134;2023-04-01T02:14:28;99014.72;;;9.48;99.63
70781;BME280;59514;48.810;2.134;2023-04-01T02:17:09;99012.59;;;9.50;100.00
70781;BME280;59514;48.810;2.134;2023-04-01T02:19:44;99018.00;;;9.55;99.08
70781;BME280;59514;48.810;2.134;2023-04-01T02:22:14;99015.06;;;9.56;98.30
70781;BME280;59514;48.810;2.134;2023-04-01T02:24:42;99002.47;;;9.57;96.49
70781;BME280;59514;48.810;2.134;2023-04-01T02:27:09;99003.31;;;9.57;97.96
70781;BME280;59514;48.810;2.134;2023-04-01T02:29:35;98993.97;;;9.60;96.60
70781;BME280;59514;48.810;2.134;2023-04-01T02:32:02;99005.28;;;9.67;95.09
70781;BME280;59514;48.810;2.134;2023-04-01T02:34:27;99005.84;;;9.69;94.04
70781;BME280;59514;48.810;2.134;2023-04-01T02:36:54;99016.28;;;9.71;94.08
70781;BME280;59514;48.810;2.134;2023-04-01T02:39:20;99021.66;;;9.71;94.18
70781;BME280;59514;48.810;2.134;2023-04-01T02:41:46;99024.09;;;9.72;93.92
70781;BME280;59514;48.810;2.134;2023-04-01T02:44:14;99010.63;;;9.67;94.55
70781;BME280;59514;48.810;2.134;2023-04-01T02:46:39;99019.41;;;9.63;95.87
70781;BME280;59514;48.810;2.134;2023-04-01T02:49:05;99022.09;;;9.63;95.12
70781;BME280;59514;48.810;2.134;2023-04-01T02:51:32;99015.69;;;9.64;94.59
70781;BME280;59514;48.810;2.134;2023-04-01T02:53:57;99019.75;;;9.66;94.52
70781;BME280;59514;48.810;2.134;2023-04-01T02:56:23;99020.53;;;9.67;93.66
70781;BME280;59514;48.810;2.134;2023-04-01T02:58:48;99038.72;;;9.65;94.34
70781;BME280;59514;48.810;2.134;2023-04-01T03:01:14;99028.53;;;9.62;94.78
70781;BME280;59514;48.810;2.134;2023-04-01T03:03:39;99043.53;;;9.63;95.06
70781;BME280;59514;48.810;2.134;2023-04-01T03:06:13;99027.22;;;9.64;94.61
70781;BME280;59514;48.810;2.134;2023-04-01T03:08:39;99029.66;;;9.66;93.83
70781;BME280;59514;48.810;2.134;2023-04-01T03:11:05;99051.34;;;9.64;93.59
70781;BME280;59514;48.810;2.134;2023-04-01T03:13:31;99047.03;;;9.63;94.83
70781;BME280;59514;48.810;2.134;2023-04-01T03:15:56;99040.84;;;9.63;94.12
70781;BME280;59514;48.810;2.134;2023-04-01T03:18:21;99046.72;;;9.60;95.28
70781;BME280;59514;48.810;2.134;2023-04-01T03:20:47;99046.16;;;9.57;95.12
70781;BME280;59514;48.810;2.134;2023-04-01T03:23:13;99046.91;;;9.53;95.13
70781;BME280;59514;48.810;2.134;2023-04-01T03:25:38;99053.66;;;9.55;95.18
70781;BME280;59514;48.810;2.134;2023-04-01T03:28:04;99046.22;;;9.63;93.03
70781;BME280;59514;48.810;2.134;2023-04-01T03:30:29;99049.16;;;9.61;93.86
70781;BME280;59514;48.810;2.134;2023-04-01T03:32:57;99055.88;;;9.64;93.34
70781;BME280;59514;48.810;2.134;2023-04-01T03:35:23;99058.06;;;9.67;93.04
70781;BME280;59514;48.810;2.134;2023-04-01T03:37:50;99049.22;;;9.66;92.79
70781;BME280;59514;48.810;2.134;2023-04-01T03:40:16;99061.28;;;9.69;92.98
70781;BME280;59514;48.810;2.134;2023-04-01T03:42:41;99058.06;;;9.67;92.56
70781;BME280;59514;48.810;2.134;2023-04-01T03:45:06;99055.16;;;9.68;92.32
70781;BME280;59514;48.810;2.134;2023-04-01T03:47:32;99055.94;;;9.69;92.23
70781;BME280;59514;48.810;2.134;2023-04-01T03:49:57;99068.53;;;9.68;92.02
70781;BME280;59514;48.810;2.134;2023-04-01T03:52:22;99084.06;;;9.66;92.96
70781;BME280;59514;48.810;2.134;2023-04-01T03:54:48;99065.53;;;9.65;94.13
70781;BME280;59514;48.810;2.134;2023-04-01T03:57:13;99052.38;;;9.63;93.06
70781;BME280;59514;48.810;2.134;2023-04-01T03:59:38;99078.38;;;9.63;93.87
70781;BME280;59514;48.810;2.134;2023-04-01T04:02:04;99087.47;;;9.62;93.25
70781;BME280;59514;48.810;2.134;2023-04-01T04:04:30;99062.28;;;9.63;92.98
70781;BME280;59514;48.810;2.134;2023-04-01T04:06:56;99074.09;;;9.62;93.52
70781;BME280;59514;48.810;2.134;2023-04-01T04:09:22;99085.84;;;9.61;93.25
70781;BME280;59514;48.810;2.134;2023-04-01T04:11:48;99077.03;;;9.60;94.34
70781;BME280;59514;48.810;2.134;2023-04-01T04:14:13;99099.81;;;9.63;93.54
70781;BME280;59514;48.810;2.134;2023-04-01T04:16:39;99080.56;;;9.66;93.17
70781;BME280;59514;48.810;2.134;2023-04-01T04:19:05;99079.50;;;9.67;92.25
70781;BME280;59514;48.810;2.134;2023-04-01T04:21:30;99084.63;;;9.68;91.79
70781;BME280;59514;48.810;2.134;2023-04-01T04:23:56;99078.94;;;9.65;93.43
70781;BME280;59514;48.810;2.134;2023-04-01T04:26:21;99093.41;;;9.64;92.77
70781;BME280;59514;48.810;2.134;2023-04-01T04:28:47;99077.59;;;9.62;93.40
70781;BME280;59514;48.810;2.134;2023-04-01T04:31:19;99094.44;;;9.63;92.46
70781;BME280;59514;48.810;2.134;2023-04-01T04:33:45;99075.75;;;9.68;91.86
70781;BME280;59514;48.810;2.134;2023-04-01T04:36:10;99095.81;;;9.65;91.77
70781;BME280;59514;48.810;2.134;2023-04-01T04:38:35;99119.47;;;9.68;91.38
70781;BME280;59514;48.810;2.134;2023-04-01T04:41:01;99083.81;;;9.68;91.37
70781;BME280;59514;48.810;2.134;2023-04-01T04:43:26;99086.75;;;9.66;91.59
70781;BME280;59514;48.810;2.134;2023-04-01T04:45:51;99084.84;;;9.67;91.86
70781;BME280;59514;48.810;2.134;2023-04-01T04:48:16;99094.53;;;9.68;90.70
70781;BME280;59514;48.810;2.134;2023-04-01T04:50:44;99100.94;;;9.67;90.94
70781;BME280;59514;48.810;2.134;2023-04-01T04:53:11;99102.00;;;9.66;90.88
70781;BME280;59514;48.810;2.134;2023-04-01T04:55:36;99096.91;;;9.64;91.00
70781;BME280;59514;48.810;2.134;2023-04-01T04:58:02;99090.72;;;9.64;91.55
70781;BME280;59514;48.810;2.134;2023-04-01T05:00:27;99107.28;;;9.61;91.55
70781;BME280;59514;48.810;2.134;2023-04-01T05:02:52;99105.69;;;9.60;91.89
70781;BME280;59514;48.810;2.134;2023-04-01T05:05:18;99101.38;;;9.58;91.87
70781;BME280;59514;48.810;2.134;2023-04-01T05:07:43;99109.91;;;9.55;92.57
70781;BME280;59514;48.810;2.134;2023-04-01T05:10:09;99111.22;;;9.53;91.96
70781;BME280;59514;48.810;2.134;2023-04-01T05:12:34;99115.75;;;9.52;93.05
70781;BME280;59514;48.810;2.134;2023-04-01T05:15:07;99131.03;;;9.52;92.21
70781;BME280;59514;48.810;2.134;2023-04-01T05:17:32;99115.44;;;9.49;93.00
70781;BME280;59514;48.810;2.134;2023-04-01T05:19:58;99109.28;;;9.48;92.95
70781;BME280;59514;48.810;2.134;2023-04-01T05:22:23;99119.69;;;9.45;93.20
70781;BME280;59514;48.810;2.134;2023-04-01T05:24:49;99133.34;;;9.43;92.54
70781;BME280;59514;48.810;2.134;2023-04-01T05:27:15;99134.16;;;9.44;93.16
70781;BME280;59514;48.810;2.134;2023-04-01T05:29:40;99160.13;;;9.43;93.86
70781;BME280;59514;48.810;2.134;2023-04-01T05:32:05;99137.63;;;9.44;92.87
70781;BME280;59514;48.810;2.134;2023-04-01T05:34:31;99124.47;;;9.43;92.79
70781;BME280;59514;48.810;2.134;2023-04-01T05:36:56;99134.94;;;9.44;92.93
70781;BME280;59514;48.810;2.134;2023-04-01T05:39:21;99145.59;;;9.39;93.22
70781;BME280;59514;48.810;2.134;2023-04-01T05:41:47;99151.22;;;9.38;94.43
70781;BME280;59514;48.810;2.134;2023-04-01T05:44:12;99138.53;;;9.33;93.67
70781;BME280;59514;48.810;2.134;2023-04-01T05:46:38;99157.56;;;9.32;93.59
70781;BME280;59514;48.810;2.134;2023-04-01T05:49:03;99143.34;;;9.31;94.12
70781;BME280;59514;48.810;2.134;2023-04-01T05:51:29;99134.50;;;9.31;94.26
70781;BME280;59514;48.810;2.134;2023-04-01T05:53:54;99150.09;;;9.34;93.06
70781;BME280;59514;48.810;2.134;2023-04-01T05:56:19;99153.06;;;9.37;93.01
70781;BME280;59514;48.810;2.134;2023-04-01T05:58:47;99144.00;;;9.38;93.37
70781;BME280;59514;48.810;2.134;2023-04-01T06:01:15;99163.88;;;9.42;91.50
70781;BME280;59514;48.810;2.134;2023-04-01T06:03:40;99142.44;;;9.42;92.42
70781;BME280;59514;48.810;2.134;2023-04-01T06:06:13;99157.19;;;9.45;92.35
70781;BME280;59514;48.810;2.134;2023-04-01T06:08:39;99168.22;;;9.48;90.24
70781;BME280;59514;48.810;2.134;2023-04-01T06:19:51;99176.81;;;9.50;88.58
70781;BME280;59514;48.810;2.134;2023-04-01T06:22:42;99184.63;;;9.52;88.31
70781;BME280;59514;48.810;2.134;2023-04-01T06:33:17;99176.81;;;9.50;88.73
70781;BME280;59514;48.810;2.134;2023-04-01T06:46:45;99181.69;;;9.53;89.38
70781;BME280;59514;48.810;2.134;2023-04-01T06:52:23;99196.13;;;9.52;89.63
70781;BME280;59514;48.810;2.134;2023-04-01T06:57:47;99190.34;;;9.61;88.96
70781;BME280;59514;48.810;2.134;2023-04-01T07:02:54;99202.97;;;9.60;88.87
70781;BME280;59514;48.810;2.134;2023-04-01T07:05:24;99196.28;;;9.63;88.97
70781;BME280;59514;48.810;2.134;2023-04-01T07:07:54;99210.25;;;9.65;88.39
70781;BME280;59514;48.810;2.134;2023-04-01T07:10:31;99202.75;;;9.67;87.69
70781;BME280;59514;48.810;2.134;2023-04-01T07:13:02;99210.06;;;9.71;88.35
70781;BME280;59514;48.810;2.134;2023-04-01T07:15:41;99211.38;;;9.69;87.81
70781;BME280;59514;48.810;2.134;2023-04-01T07:18:18;99213.06;;;9.75;87.14
70781;BME280;59514;48.810;2.134;2023-04-01T07:20:46;99215.31;;;9.83;86.87
70781;BME280;59514;48.810;2.134;2023-04-01T07:23:28;99210.03;;;9.88;86.61
70781;BME280;59514;48.810;2.134;2023-04-01T07:26:07;99221.78;;;9.87;85.69
70781;BME280;59514;48.810;2.134;2023-04-01T07:28:36;99219.75;;;9.94;87.40
70781;BME280;59514;48.810;2.134;2023-04-01T07:31:56;99219.13;;;9.87;86.27
70781;BME280;59514;48.810;2.134;2023-04-01T07:36:56;99234.28;;;9.98;85.71
70781;BME280;59514;48.810;2.134;2023-04-01T07:42:16;99244.94;;;9.93;86.25
70781;BME280;59514;48.810;2.134;2023-04-01T07:47:20;99232.09;;;9.95;84.80
70781;BME280;59514;48.810;2.134;2023-04-01T07:52:20;99222.63;;;10.09;83.72
70781;BME280;59514;48.810;2.134;2023-04-01T07:54:55;99228.31;;;10.12;83.85
70781;BME280;59514;48.810;2.134;2023-04-01T07:58:08;99231.50;;;10.31;82.14
70781;BME280;59514;48.810;2.134;2023-04-01T08:03:11;99224.53;;;10.30;80.28
70781;BME280;59514;48.810;2.134;2023-04-01T08:05:49;99236.69;;;10.37;79.52
70781;BME280;59514;48.810;2.134;2023-04-01T08:16:55;99245.41;;;10.76;77.53
70781;BME280;59514;48.810;2.134;2023-04-01T08:19:31;99244.19;;;10.89;76.11
70781;BME280;59514;48.810;2.134;2023-04-01T08:22:10;99260.88;;;10.91;75.94
70781;BME280;59514;48.810;2.134;2023-04-01T08:24:42;99264.66;;;10.95;75.07
70781;BME280;59514;48.810;2.134;2023-04-01T08:27:34;99261.63;;;10.86;74.80
70781;BME280;59514;48.810;2.134;2023-04-01T08:33:16;99259.09;;;11.01;74.96
70781;BME280;59514;48.810;2.134;2023-04-01T08:35:50;99262.94;;;11.10;75.16
70781;BME280;59514;48.810;2.134;2023-04-01T08:38:52;99257.00;;;11.08;74.40
70781;BME280;59514;48.810;2.134;2023-04-01T08:44:04;99275.31;;;11.11;75.38
70781;BME280;59514;48.810;2.134;2023-04-01T08:46:35;99268.97;;;11.27;76.00
70781;BME280;59514;48.810;2.134;2023-04-01T08:51:52;99280.63;;;11.38;76.20
70781;BME280;59514;48.810;2.134;2023-04-01T08:54:46;99261.63;;;11.50;75.80
70781;BME280;59514;48.810;2.134;2023-04-01T09:02:46;99270.56;;;11.55;76.16
70781;BME280;59514;48.810;2.134;2023-04-01T09:22:47;99269.00;;;11.64;75.05
70781;BME280;59514;48.810;2.134;2023-04-01T09:25:34;99298.06;;;11.36;74.07
70781;BME280;59514;48.810;2.134;2023-04-01T09:33:29;99275.31;;;11.80;72.36
70781;BME280;59514;48.810;2.134;2023-04-01T09:36:17;99308.88;;;11.72;71.11
70781;BME280;59514;48.810;2.134;2023-04-01T09:39:06;99290.97;;;11.88;70.31
70781;BME280;59514;48.810;2.134;2023-04-01T09:44:34;99283.69;;;12.35;67.79
70781;BME280;59514;48.810;2.134;2023-04-01T09:47:08;99265.22;;;12.02;66.76
70781;BME280;59514;48.810;2.134;2023-04-01T09:53:01;99274.94;;;12.08;66.03
70781;BME280;59514;48.810;2.134;2023-04-01T09:58:33;99328.69;;;11.98;63.38
70781;BME280;59514;48.810;2.134;2023-04-01T10:04:42;99278.59;;;11.87;64.71
70781;BME280;59514;48.810;2.134;2023-04-01T10:07:01;99278.75;;;12.17;65.33
70781;BME280;59514;48.810;2.134;2023-04-01T10:48:19;99286.63;;;13.06;61.72
70781;BME280;59514;48.810;2.134;2023-04-01T10:51:01;99285.00;;;13.05;61.49
70781;BME280;59514;48.810;2.134;2023-04-01T10:53:45;99287.16;;;13.13;60.91
70781;BME280;59514;48.810;2.134;2023-04-01T10:56:39;99292.19;;;12.79;60.88
70781;BME280;59514;48.810;2.134;2023-04-01T11:25:11;99265.44;;;14.43;56.76
70781;BME280;59514;48.810;2.134;2023-04-01T11:28:00;99271.25;;;13.66;56.38
70781;BME280;59514;48.810;2.134;2023-04-01T11:33:21;99273.09;;;14.75;54.75
70781;BME280;59514;48.810;2.134;2023-04-01T11:36:04;99268.41;;;14.37;54.47
70781;BME280;59514;48.810;2.134;2023-04-01T11:38:42;99293.63;;;14.76;53.74
70781;BME280;59514;48.810;2.134;2023-04-01T11:55:28;99274.34;;;14.93;51.52
70781;BME280;59514;48.810;2.134;2023-04-01T12:00:52;99296.28;;;14.02;53.94
70781;BME280;59514;48.810;2.134;2023-04-01T12:06:11;99287.13;;;14.03;53.67
70781;BME280;59514;48.810;2.134;2023-04-01T12:14:27;99296.38;;;15.10;51.74
70781;BME280;59514;48.810;2.134;2023-04-01T12:17:04;99280.88;;;14.82;52.59
70781;BME280;59514;48.810;2.134;2023-04-01T12:19:58;99285.09;;;15.03;52.32
70781;BME280;59514;48.810;2.134;2023-04-01T12:31:06;99284.59;;;14.96;52.82
70781;BME280;59514;48.810;2.134;2023-04-01T12:39:26;99295.25;;;13.73;55.64
70781;BME280;59514;48.810;2.134;2023-04-01T12:55:45;99296.19;;;15.40;54.85
70781;BME280;59514;48.810;2.134;2023-04-01T13:07:07;99290.59;;;16.17;49.37
70781;BME280;59514;48.810;2.134;2023-04-01T13:09:54;99285.97;;;17.77;45.86
70781;BME280;59514;48.810;2.134;2023-04-01T13:15:16;99265.06;;;16.71;47.49
70781;BME280;59514;48.810;2.134;2023-04-01T13:22:51;99263.53;;;15.65;50.06
70781;BME280;59514;48.810;2.134;2023-04-01T13:27:51;99286.94;;;15.07;51.62
70781;BME280;59514;48.810;2.134;2023-04-01T13:30:47;99281.94;;;14.86;52.99
70781;BME280;59514;48.810;2.134;2023-04-01T13:36:15;99284.88;;;14.45;55.22
70781;BME280;59514;48.810;2.134;2023-04-01T14:11:56;99285.34;;;15.40;52.37
70781;BME280;59514;48.810;2.134;2023-04-01T14:15:28;99292.56;;;16.12;51.45
70781;BME280;59514;48.810;2.134;2023-04-01T14:20:22;99300.91;;;15.19;53.45
70781;BME280;59514;48.810;2.134;2023-04-01T14:31:12;99302.81;;;15.58;53.62
70781;BME280;59514;48.810;2.134;2023-04-01T14:34:05;99291.72;;;15.88;51.22
70781;BME280;59514;48.810;2.134;2023-04-01T14:36:39;99301.53;;;15.50;50.29
70781;BME280;59514;48.810;2.134;2023-04-01T14:41:51;99304.09;;;15.70;50.33
70781;BME280;59514;48.810;2.134;2023-04-01T14:44:46;99309.88;;;15.53;51.11
70781;BME280;59514;48.810;2.134;2023-04-01T14:47:39;99308.00;;;15.54;49.62
70781;BME280;59514;48.810;2.134;2023-04-01T14:50:15;99325.00;;;15.60;50.27
70781;BME280;59514;48.810;2.134;2023-04-01T14:52:50;99321.81;;;15.09;51.14
70781;BME280;59514;48.810;2.134;2023-04-01T15:00:58;99320.72;;;14.61;53.26
70781;BME280;59514;48.810;2.134;2023-04-01T15:12:47;99348.63;;;14.21;56.72
70781;BME280;59514;48.810;2.134;2023-04-01T15:21:25;99357.31;;;13.73;58.93
70781;BME280;59514;48.810;2.134;2023-04-01T15:29:38;99368.56;;;13.10;68.76
70781;BME280;59514;48.810;2.134;2023-04-01T15:35:12;99368.47;;;12.89;65.93
70781;BME280;59514;48.810;2.134;2023-04-01T15:40:31;99371.03;;;13.26;67.27
70781;BME280;59514;48.810;2.134;2023-04-01T15:45:47;99376.19;;;13.68;63.01
70781;BME280;59514;48.810;2.134;2023-04-01T15:51:15;99372.91;;;13.26;63.26
70781;BME280;59514;48.810;2.134;2023-04-01T15:54:27;99385.81;;;13.19;63.90
70781;BME280;59514;48.810;2.134;2023-04-01T16:02:02;99437.50;;;12.17;75.66
70781;BME280;59514;48.810;2.134;2023-04-01T16:04:50;99428.72;;;12.27;77.69
70781;BME280;59514;48.810;2.134;2023-04-01T16:10:38;99438.97;;;12.30;76.88
70781;BME280;59514;48.810;2.134;2023-04-01T16:24:04;99430.13;;;14.58;63.95
70781;BME280;59514;48.810;2.134;2023-04-01T16:29:35;99463.84;;;12.98;72.30
70781;BME280;59514;48.810;2.134;2023-04-01T16:32:31;99459.66;;;12.66;73.79
70781;BME280;59514;48.810;2.134;2023-04-01T16:35:35;99467.09;;;12.17;76.07
70781;BME280;59514;48.810;2.134;2023-04-01T16:40:58;99465.66;;;11.73;78.83
70781;BME280;59514;48.810;2.134;2023-04-01T16:51:31;99482.19;;;11.38;78.73
70781;BME280;59514;48.810;2.134;2023-04-01T16:56:55;99498.56;;;11.15;80.74
70781;BME280;59514;48.810;2.134;2023-04-01T16:59:26;99495.19;;;11.24;78.85
70781;BME280;59514;48.810;2.134;2023-04-01T17:01:55;99497.06;;;11.02;79.86
70781;BME280;59514;48.810;2.134;2023-04-01T17:11:07;99502.31;;;10.92;81.57
70781;BME280;59514;48.810;2.134;2023-04-01T17:24:36;99518.56;;;11.02;84.53
70781;BME280;59514;48.810;2.134;2023-04-01T17:27:26;99523.94;;;11.02;87.28
70781;BME280;59514;48.810;2.134;2023-04-01T17:33:16;99532.78;;;10.65;88.45
70781;BME280;59514;48.810;2.134;2023-04-01T17:41:03;99546.59;;;10.40;91.15
70781;BME280;59514;48.810;2.134;2023-04-01T17:43:53;99543.34;;;10.38;92.64
70781;BME280;59514;48.810;2.134;2023-04-01T17:46:26;99547.91;;;10.21;92.59
70781;BME280;59514;48.810;2.134;2023-04-01T17:49:07;99556.91;;;10.15;94.66
70781;BME280;59514;48.810;2.134;2023-04-01T17:51:56;99561.25;;;10.32;94.51
70781;BME280;59514;48.810;2.134;2023-04-01T17:57:25;99559.22;;;10.23;95.08
70781;BME280;59514;48.810;2.134;2023-04-01T18:11:34;99599.25;;;10.13;97.02
70781;BME280;59514;48.810;2.134;2023-04-01T18:20:31;99594.34;;;10.38;96.24
70781;BME280;59514;48.810;2.134;2023-04-01T18:25:44;99609.84;;;10.19;97.40
70781;BME280;59514;48.810;2.134;2023-04-01T18:31:07;99613.34;;;10.20;97.81
70781;BME280;59514;48.810;2.134;2023-04-01T18:36:16;99619.53;;;10.09;97.38
70781;BME280;59514;48.810;2.134;2023-04-01T18:38:49;99630.88;;;10.11;98.19
70781;BME280;59514;48.810;2.134;2023-04-01T18:41:32;99629.66;;;10.18;97.32
70781;BME280;59514;48.810;2.134;2023-04-01T18:46:48;99642.13;;;10.24;96.43
70781;BME280;59514;48.810;2.134;2023-04-01T18:49:40;99644.97;;;10.06;97.18
70781;BME280;59514;48.810;2.134;2023-04-01T18:55:34;99656.09;;;10.10;97.33
70781;BME280;59514;48.810;2.134;2023-04-01T18:57:41;99656.66;;;10.12;97.08
70781;BME280;59514;48.810;2.134;2023-04-01T19:03:02;99676.94;;;10.08;97.24
70781;BME280;59514;48.810;2.134;2023-04-01T19:05:38;99679.50;;;10.03;96.90
70781;BME280;59514;48.810;2.134;2023-04-01T19:08:32;99681.28;;;9.97;98.46
70781;BME280;59514;48.810;2.134;2023-04-01T19:14:15;99702.38;;;9.94;98.38
70781;BME280;59514;48.810;2.134;2023-04-01T19:22:17;99706.06;;;10.04;98.06
70781;BME280;59514;48.810;2.134;2023-04-01T19:25:04;99706.69;;;9.95;97.98
70781;BME280;59514;48.810;2.134;2023-04-01T19:27:45;99710.31;;;9.89;98.04
70781;BME280;59514;48.810;2.134;2023-04-01T19:33:26;99707.97;;;9.92;97.65
70781;BME280;59514;48.810;2.134;2023-04-01T19:36:13;99723.97;;;9.87;97.21
70781;BME280;59514;48.810;2.134;2023-04-01T19:42:02;99727.78;;;9.91;96.61
70781;BME280;59514;48.810;2.134;2023-04-01T19:48:05;99737.66;;;10.02;95.47
70781;BME280;59514;48.810;2.134;2023-04-01T19:50:44;99747.38;;;9.92;97.40
70781;BME280;59514;48.810;2.134;2023-04-01T19:56:19;99756.94;;;9.99;96.93
70781;BME280;59514;48.810;2.134;2023-04-01T20:01:34;99754.84;;;9.90;97.67
70781;BME280;59514;48.810;2.134;2023-04-01T20:04:04;99764.63;;;9.96;96.66
70781;BME280;59514;48.810;2.134;2023-04-01T20:09:14;99773.63;;;9.90;97.53
70781;BME280;59514;48.810;2.134;2023-04-01T20:16:50;99771.63;;;9.97;97.29
70781;BME280;59514;48.810;2.134;2023-04-01T20:19:27;99782.34;;;9.97;97.41
70781;BME280;59514;48.810;2.134;2023-04-01T20:21:57;99792.72;;;9.93;98.77
70781;BME280;59514;48.810;2.134;2023-04-01T20:24:45;99798.34;;;9.80;100.00
70781;BME280;59514;48.810;2.134;2023-04-01T20:32:39;99811.16;;;9.90;100.00
70781;BME280;59514;48.810;2.134;2023-04-01T20:41:06;99829.56;;;9.98;99.33
70781;BME280;59514;48.810;2.134;2023-04-01T20:46:56;99836.94;;;10.14;97.95
70781;BME280;59514;48.810;2.134;2023-04-01T20:54:54;99842.91;;;10.16;96.47
70781;BME280;59514;48.810;2.134;2023-04-01T20:57:38;99847.75;;;10.07;95.34
70781;BME280;59514;48.810;2.134;2023-04-01T21:03:24;99848.69;;;10.01;94.50
70781;BME280;59514;48.810;2.134;2023-04-01T21:06:09;99851.72;;;10.05;94.02
70781;BME280;59514;48.810;2.134;2023-04-01T21:14:33;99856.16;;;9.99;94.92
70781;BME280;59514;48.810;2.134;2023-04-01T21:20:18;99871.41;;;9.99;94.79
70781;BME280;59514;48.810;2.134;2023-04-01T21:28:09;99867.69;;;9.88;93.50
70781;BME280;59514;48.810;2.134;2023-04-01T21:31:04;99868.06;;;9.80;93.72
70781;BME280;59514;48.810;2.134;2023-04-01T21:39:26;99872.81;;;9.78;93.51
70781;BME280;59514;48.810;2.134;2023-04-01T21:42:29;99867.22;;;9.80;92.96
70781;BME280;59514;48.810;2.134;2023-04-01T21:47:58;99878.88;;;9.74;93.18
70781;BME280;59514;48.810;2.134;2023-04-01T21:50:45;99885.16;;;9.68;93.38
70781;BME280;59514;48.810;2.134;2023-04-01T22:10:41;99896.53;;;9.51;97.40
70781;BME280;59514;48.810;2.134;2023-04-01T22:13:23;99900.25;;;9.50;96.61
70781;BME280;59514;48.810;2.134;2023-04-01T22:19:00;99909.00;;;9.46;96.46
70781;BME280;59514;48.810;2.134;2023-04-01T22:21:36;99915.31;;;9.51;95.58
70781;BME280;59514;48.810;2.134;2023-04-01T22:30:19;99918.41;;;9.48;95.12
70781;BME280;59514;48.810;2.134;2023-04-01T22:43:44;99926.47;;;9.48;93.15
70781;BME280;59514;48.810;2.134;2023-04-01T22:49:06;99941.50;;;9.49;93.40
70781;BME280;59514;48.810;2.134;2023-04-01T22:51:42;99942.09;;;9.51;92.99
70781;BME280;59514;48.810;2.134;2023-04-01T22:54:27;99939.63;;;9.38;92.63
70781;BME280;59514;48.810;2.134;2023-04-01T22:57:02;99944.88;;;9.45;92.91
70781;BME280;59514;48.810;2.134;2023-04-01T22:59:42;99948.38;;;9.45;93.17
70781;BME280;59514;48.810;2.134;2023-04-01T23:02:20;99945.41;;;9.35;92.15
70781;BME280;59514;48.810;2.134;2023-04-01T23:04:51;99943.25;;;9.44;92.19